Du har inga inställningar för hoppväder.nu

Hoppväder.nu

Senast uppdaterat 02:51

UTC-tid

2022-05-24 kl. 00:51


Sol och måne

Solen går upp 4:07 och går ner 22:47 (beräknade cirkatider)
Nästa fullmåne blir om 21 dagar (2022-06-14)

METAR

ESOE (Örebro)
(31 minuter sedan)
ESOE 240020Z AUTO 03004KT 9999 NCD 07/03 Q1008=



ESOK (Karlstad)
(31 minuter sedan)
ESOK 240020Z AUTO 12005KT 9999 NCD 12/06 Q1007=



ESGR (Skövde)
ESGR NIL=



ESSD (Borlänge)
(31 minuter sedan)
ESSD 240020Z AUTO 15003KT 9999 FEW062/// 09/03 Q1009=



ESOW (Västerås)
(31 minuter sedan)
ESOW 240020Z AUTO VRB01KT 9999 NCD 07/01 Q1010=



TAF

ESOE (Örebro)
(261 minuter sedan)
ESOE 232030Z 2321/2401 13005KT CAVOK=



ESOK (Karlstad)
ESOK



ESGR (Skövde)
ESGR



ESSD (Borlänge)
ESSD



ESOW (Västerås)
ESOW





Kodnycklar till TAF och METAR






LHP

(Örebro är område se32g i Delområde 4)

Prognos är inte uppdaterad






Preliminär prognos